createdAt,value
2022-12-31T00:03:40.142Z,11.9
2022-12-31T00:13:41.383Z,12.1
2022-12-31T00:23:43.145Z,12.1
2022-12-31T00:33:44.849Z,12.3
2022-12-31T00:43:46.868Z,12.3
2022-12-31T01:03:49.687Z,11.9
2022-12-31T01:13:51.600Z,11.8
2022-12-31T01:23:52.990Z,11.7
2022-12-31T01:33:54.601Z,11.7
2022-12-31T01:43:56.030Z,11.8
2022-12-31T01:53:57.723Z,11.9
2022-12-31T02:03:59.582Z,12
2022-12-31T02:14:00.857Z,12
2022-12-31T02:24:02.496Z,12.4
2022-12-31T02:44:05.869Z,13.2
2022-12-31T02:54:07.707Z,13.5
2022-12-31T03:14:10.915Z,14
2022-12-31T03:24:12.458Z,14.4
2022-12-31T03:34:14.082Z,14.3
2022-12-31T03:54:17.149Z,13.9
2022-12-31T04:44:24.861Z,13.3
2022-12-31T05:04:27.606Z,14.1
2022-12-31T05:14:28.645Z,14.5
2022-12-31T05:24:30.197Z,14.9
2022-12-31T05:34:31.216Z,15.2
2022-12-31T05:44:32.863Z,15.3
2022-12-31T05:54:34.249Z,15.5
2022-12-31T06:04:36.089Z,15.6
2022-12-31T06:14:42.291Z,15.7
2022-12-31T06:34:41.404Z,15.2
2022-12-31T06:54:44.908Z,15.9
2022-12-31T07:04:46.118Z,15.8
2022-12-31T07:14:48.006Z,16
2022-12-31T07:34:50.285Z,16.1
2022-12-31T07:54:53.324Z,16
2022-12-31T08:04:54.861Z,16.1
2022-12-31T08:24:58.077Z,16.2
2022-12-31T08:34:59.485Z,16.1
2022-12-31T08:45:01.305Z,16.3
2022-12-31T08:55:02.743Z,16.3
2022-12-31T09:05:04.384Z,16.5
2022-12-31T09:15:05.588Z,16.5
2022-12-31T09:45:10.727Z,16
2022-12-31T09:55:12.500Z,16.2
2022-12-31T10:05:13.846Z,16.3
2022-12-31T10:25:17.179Z,16.1
2022-12-31T10:35:18.433Z,16.4
2022-12-31T10:45:19.702Z,16.4
2022-12-31T10:55:20.977Z,16.5
2022-12-31T11:05:22.677Z,16.7
2022-12-31T11:15:24.650Z,16.8
2022-12-31T11:25:25.778Z,16.9
2022-12-31T11:35:27.109Z,16.9
2022-12-31T11:45:28.361Z,16.9
2022-12-31T12:05:30.955Z,16.8
2022-12-31T12:15:32.727Z,16.7
2022-12-31T12:35:35.552Z,16.4
2022-12-31T12:45:37.207Z,16.3
2022-12-31T13:05:39.341Z,15.2
2022-12-31T13:55:49.736Z,16.2
2022-12-31T14:15:49.970Z,15.5
2022-12-31T14:25:51.174Z,15.8
2022-12-31T14:35:53.154Z,15.9
2022-12-31T15:36:01.756Z,15.4
2022-12-31T15:46:03.181Z,15.3
2022-12-31T15:56:04.260Z,15.2
2022-12-31T16:06:05.737Z,15.1
2022-12-31T16:16:07.173Z,15.2
2022-12-31T16:46:11.910Z,15.8
2022-12-31T16:56:13.023Z,15.9
2022-12-31T17:06:14.907Z,15.8
2022-12-31T17:56:22.407Z,15.8
2022-12-31T18:06:23.843Z,15.7
2022-12-31T18:16:25.823Z,15.8
2022-12-31T18:26:27.939Z,15.5
2022-12-31T18:36:29.132Z,15.6
2022-12-31T18:46:30.709Z,15.5
2022-12-31T18:49:09.012Z,15.5
2022-12-31T18:56:46.661Z,15.4
2022-12-31T19:06:42.726Z,15.4
2022-12-31T19:16:44.774Z,15.3
2022-12-31T19:36:48.382Z,15.3
2022-12-31T19:46:49.499Z,15.4
2022-12-31T20:06:52.689Z,15.3
2022-12-31T20:16:54.052Z,15.3
2022-12-31T20:26:55.010Z,15.5
2022-12-31T20:36:56.233Z,15.6
2022-12-31T20:46:57.620Z,15.5
2022-12-31T20:56:59.468Z,15.8
2022-12-31T21:07:00.943Z,15.9
2022-12-31T21:37:04.871Z,15.9
2022-12-31T21:47:34.241Z,15.8
2022-12-31T22:07:09.494Z,16.1
2022-12-31T22:27:28.922Z,16
2022-12-31T22:37:35.565Z,16
2022-12-31T22:47:14.970Z,16.2
2022-12-31T22:57:20.107Z,16.1
2022-12-31T23:07:18.237Z,16.3
2022-12-31T23:27:21.531Z,16.3
2022-12-31T23:37:25.061Z,16.1
2022-12-31T23:47:24.560Z,16.2
2022-12-31T23:57:26.316Z,16.3
